Terminal Aerodrome Forecast
Issued by NWS

Home | Current Version | Previous Version | Text Only | Print | Product List | Glossary On
Versions: 1 2 3 4 5 6 7 8 9 10 11 12 13 14 15 16 17 18 19 20 21 22
000
FTUS43 KGRR 032337
TAFMKG
TAF
KMKG 032337Z 0400/0424 29009KT P6SM SCT040
     FM040500 32004KT 4SM BR OVC007
     FM040800 32003KT 2SM BR OVC003
     FM041100 32002KT 1/2SM FG VV001
     FM041400 20003KT 2SM BR OVC003
     FM041800 25007KT P6SM BKN025=

USA.gov is the U.S. government's official web portal to all federal, state and local government web resources and services.